sensor_id;sensor_type;location;lat;lon;timestamp;P1;durP1;ratioP1;P2;durP2;ratioP2
5357;SDS011;2702;51.014;7.170;2022-12-07T00:01:06;38.73;;;27.33;;
5357;SDS011;2702;51.014;7.170;2022-12-07T00:03:41;40.77;;;27.47;;
5357;SDS011;2702;51.014;7.170;2022-12-07T00:06:08;41.67;;;27.90;;
5357;SDS011;2702;51.014;7.170;2022-12-07T00:08:36;43.97;;;27.50;;
5357;SDS011;2702;51.014;7.170;2022-12-07T00:13:33;43.10;;;29.07;;
5357;SDS011;2702;51.014;7.170;2022-12-07T00:16:01;41.70;;;30.10;;
5357;SDS011;2702;51.014;7.170;2022-12-07T00:18:28;39.07;;;29.03;;
5357;SDS011;2702;51.014;7.170;2022-12-07T00:20:58;42.53;;;28.90;;
5357;SDS011;2702;51.014;7.170;2022-12-07T00:23:27;44.10;;;28.67;;
5357;SDS011;2702;51.014;7.170;2022-12-07T00:25:53;47.57;;;31.70;;
5357;SDS011;2702;51.014;7.170;2022-12-07T00:28:19;45.63;;;30.40;;
5357;SDS011;2702;51.014;7.170;2022-12-07T00:30:44;41.90;;;29.60;;
5357;SDS011;2702;51.014;7.170;2022-12-07T00:33:10;44.50;;;29.00;;
5357;SDS011;2702;51.014;7.170;2022-12-07T00:35:36;42.93;;;29.67;;
5357;SDS011;2702;51.014;7.170;2022-12-07T00:38:02;40.80;;;29.50;;
5357;SDS011;2702;51.014;7.170;2022-12-07T00:40:27;39.23;;;28.77;;
5357;SDS011;2702;51.014;7.170;2022-12-07T00:42:53;36.53;;;26.50;;
5357;SDS011;2702;51.014;7.170;2022-12-07T00:45:19;41.87;;;29.10;;
5357;SDS011;2702;51.014;7.170;2022-12-07T00:47:45;44.43;;;29.67;;
5357;SDS011;2702;51.014;7.170;2022-12-07T00:50:11;47.33;;;30.53;;
5357;SDS011;2702;51.014;7.170;2022-12-07T00:52:37;43.57;;;30.50;;
5357;SDS011;2702;51.014;7.170;2022-12-07T00:55:02;41.83;;;30.50;;
5357;SDS011;2702;51.014;7.170;2022-12-07T00:57:30;43.53;;;30.90;;
5357;SDS011;2702;51.014;7.170;2022-12-07T00:59:55;40.50;;;29.23;;
5357;SDS011;2702;51.014;7.170;2022-12-07T01:02:22;45.50;;;30.47;;
5357;SDS011;2702;51.014;7.170;2022-12-07T01:04:48;43.67;;;29.63;;
5357;SDS011;2702;51.014;7.170;2022-12-07T01:07:14;45.67;;;31.50;;
5357;SDS011;2702;51.014;7.170;2022-12-07T01:09:40;45.40;;;30.60;;
5357;SDS011;2702;51.014;7.170;2022-12-07T01:12:06;45.73;;;30.53;;
5357;SDS011;2702;51.014;7.170;2022-12-07T01:14:32;39.83;;;29.67;;
5357;SDS011;2702;51.014;7.170;2022-12-07T01:16:58;42.53;;;29.80;;
5357;SDS011;2702;51.014;7.170;2022-12-07T01:19:23;41.07;;;29.53;;
5357;SDS011;2702;51.014;7.170;2022-12-07T01:21:49;41.93;;;28.73;;
5357;SDS011;2702;51.014;7.170;2022-12-07T01:24:15;43.83;;;29.20;;
5357;SDS011;2702;51.014;7.170;2022-12-07T01:26:41;41.83;;;29.83;;
5357;SDS011;2702;51.014;7.170;2022-12-07T01:29:07;41.53;;;29.13;;
5357;SDS011;2702;51.014;7.170;2022-12-07T01:31:32;38.90;;;28.83;;
5357;SDS011;2702;51.014;7.170;2022-12-07T01:33:59;43.00;;;31.07;;
5357;SDS011;2702;51.014;7.170;2022-12-07T01:36:27;40.40;;;30.17;;
5357;SDS011;2702;51.014;7.170;2022-12-07T01:38:56;38.50;;;30.67;;
5357;SDS011;2702;51.014;7.170;2022-12-07T01:41:24;43.30;;;31.80;;
5357;SDS011;2702;51.014;7.170;2022-12-07T01:46:40;40.43;;;29.50;;
5357;SDS011;2702;51.014;7.170;2022-12-07T01:49:10;38.87;;;28.40;;
5357;SDS011;2702;51.014;7.170;2022-12-07T01:51:41;42.60;;;29.57;;
5357;SDS011;2702;51.014;7.170;2022-12-07T01:54:09;44.10;;;29.70;;
5357;SDS011;2702;51.014;7.170;2022-12-07T01:56:36;39.93;;;30.10;;
5357;SDS011;2702;51.014;7.170;2022-12-07T01:59:03;43.37;;;31.90;;
5357;SDS011;2702;51.014;7.170;2022-12-07T02:01:29;41.57;;;30.03;;
5357;SDS011;2702;51.014;7.170;2022-12-07T02:03:55;45.53;;;32.17;;
5357;SDS011;2702;51.014;7.170;2022-12-07T02:06:23;45.43;;;32.53;;
5357;SDS011;2702;51.014;7.170;2022-12-07T02:08:50;46.10;;;31.00;;
5357;SDS011;2702;51.014;7.170;2022-12-07T02:11:16;46.10;;;32.00;;
5357;SDS011;2702;51.014;7.170;2022-12-07T02:13:43;43.03;;;29.77;;
5357;SDS011;2702;51.014;7.170;2022-12-07T02:18:48;57.33;;;31.80;;
5357;SDS011;2702;51.014;7.170;2022-12-07T02:35:17;73.83;;;32.33;;
5357;SDS011;2702;51.014;7.170;2022-12-07T02:38:03;74.20;;;34.60;;
5357;SDS011;2702;51.014;7.170;2022-12-07T02:40:55;53.20;;;30.30;;
5357;SDS011;2702;51.014;7.170;2022-12-07T02:43:28;79.43;;;35.60;;
5357;SDS011;2702;51.014;7.170;2022-12-07T02:45:59;54.63;;;32.30;;
5357;SDS011;2702;51.014;7.170;2022-12-07T02:48:32;60.17;;;32.93;;
5357;SDS011;2702;51.014;7.170;2022-12-07T02:50:59;52.10;;;30.60;;
5357;SDS011;2702;51.014;7.170;2022-12-07T02:53:35;48.50;;;30.37;;
5357;SDS011;2702;51.014;7.170;2022-12-07T02:56:16;52.40;;;32.47;;
5357;SDS011;2702;51.014;7.170;2022-12-07T03:04:56;75.87;;;34.17;;
5357;SDS011;2702;51.014;7.170;2022-12-07T03:10:47;86.43;;;35.97;;
5357;SDS011;2702;51.014;7.170;2022-12-07T03:18:30;55.30;;;33.87;;
5357;SDS011;2702;51.014;7.170;2022-12-07T03:21:01;56.57;;;33.40;;
5357;SDS011;2702;51.014;7.170;2022-12-07T03:23:30;52.00;;;34.20;;
5357;SDS011;2702;51.014;7.170;2022-12-07T03:26:00;52.37;;;32.57;;
5357;SDS011;2702;51.014;7.170;2022-12-07T03:28:30;59.63;;;35.33;;
5357;SDS011;2702;51.014;7.170;2022-12-07T03:33:55;54.90;;;35.57;;
5357;SDS011;2702;51.014;7.170;2022-12-07T03:37:05;88.97;;;37.77;;
5357;SDS011;2702;51.014;7.170;2022-12-07T03:43:16;89.67;;;36.07;;
5357;SDS011;2702;51.014;7.170;2022-12-07T03:45:47;76.57;;;36.20;;
5357;SDS011;2702;51.014;7.170;2022-12-07T03:48:25;114.17;;;40.60;;
5357;SDS011;2702;51.014;7.170;2022-12-07T03:51:02;213.53;;;54.60;;
5357;SDS011;2702;51.014;7.170;2022-12-07T03:53:54;110.13;;;41.87;;
5357;SDS011;2702;51.014;7.170;2022-12-07T03:56:31;82.03;;;37.37;;
5357;SDS011;2702;51.014;7.170;2022-12-07T03:58:58;52.60;;;35.10;;
5357;SDS011;2702;51.014;7.170;2022-12-07T04:01:24;77.60;;;38.17;;
5357;SDS011;2702;51.014;7.170;2022-12-07T04:03:50;70.27;;;36.97;;
5357;SDS011;2702;51.014;7.170;2022-12-07T04:06:16;93.63;;;40.73;;
5357;SDS011;2702;51.014;7.170;2022-12-07T04:08:42;49.33;;;33.30;;
5357;SDS011;2702;51.014;7.170;2022-12-07T04:11:08;52.47;;;33.87;;
5357;SDS011;2702;51.014;7.170;2022-12-07T04:13:34;54.70;;;34.13;;
5357;SDS011;2702;51.014;7.170;2022-12-07T04:16:20;57.00;;;33.63;;
5357;SDS011;2702;51.014;7.170;2022-12-07T04:18:46;58.60;;;35.70;;
5357;SDS011;2702;51.014;7.170;2022-12-07T04:21:11;53.20;;;35.67;;
5357;SDS011;2702;51.014;7.170;2022-12-07T04:23:37;54.83;;;34.87;;
5357;SDS011;2702;51.014;7.170;2022-12-07T04:26:03;59.77;;;36.07;;
5357;SDS011;2702;51.014;7.170;2022-12-07T04:28:29;57.23;;;35.90;;
5357;SDS011;2702;51.014;7.170;2022-12-07T04:30:55;57.37;;;37.33;;
5357;SDS011;2702;51.014;7.170;2022-12-07T04:33:21;48.30;;;33.87;;
5357;SDS011;2702;51.014;7.170;2022-12-07T04:35:46;57.83;;;35.00;;
5357;SDS011;2702;51.014;7.170;2022-12-07T04:38:12;56.97;;;36.33;;
5357;SDS011;2702;51.014;7.170;2022-12-07T04:40:38;56.73;;;37.40;;
5357;SDS011;2702;51.014;7.170;2022-12-07T04:43:04;49.70;;;35.37;;
5357;SDS011;2702;51.014;7.170;2022-12-07T04:45:30;56.50;;;36.60;;
5357;SDS011;2702;51.014;7.170;2022-12-07T04:47:56;55.70;;;37.07;;
5357;SDS011;2702;51.014;7.170;2022-12-07T04:50:21;51.57;;;35.33;;
5357;SDS011;2702;51.014;7.170;2022-12-07T04:52:47;54.40;;;34.80;;
5357;SDS011;2702;51.014;7.170;2022-12-07T04:55:13;59.47;;;36.93;;
5357;SDS011;2702;51.014;7.170;2022-12-07T04:57:39;59.27;;;37.10;;
5357;SDS011;2702;51.014;7.170;2022-12-07T05:00:05;48.80;;;34.10;;
5357;SDS011;2702;51.014;7.170;2022-12-07T05:02:32;55.77;;;35.00;;
5357;SDS011;2702;51.014;7.170;2022-12-07T05:04:57;50.00;;;33.77;;
5357;SDS011;2702;51.014;7.170;2022-12-07T05:07:23;46.37;;;31.83;;
5357;SDS011;2702;51.014;7.170;2022-12-07T05:09:49;47.63;;;32.87;;
5357;SDS011;2702;51.014;7.170;2022-12-07T05:12:15;42.43;;;30.57;;
5357;SDS011;2702;51.014;7.170;2022-12-07T05:14:40;45.27;;;30.73;;
5357;SDS011;2702;51.014;7.170;2022-12-07T05:17:06;45.27;;;31.70;;
5357;SDS011;2702;51.014;7.170;2022-12-07T05:19:32;45.33;;;31.27;;
5357;SDS011;2702;51.014;7.170;2022-12-07T05:21:58;43.23;;;29.20;;
5357;SDS011;2702;51.014;7.170;2022-12-07T05:24:24;43.63;;;31.03;;
5357;SDS011;2702;51.014;7.170;2022-12-07T05:26:49;43.63;;;31.77;;
5357;SDS011;2702;51.014;7.170;2022-12-07T05:29:16;47.20;;;32.90;;
5357;SDS011;2702;51.014;7.170;2022-12-07T05:31:43;42.93;;;32.33;;
5357;SDS011;2702;51.014;7.170;2022-12-07T05:34:09;45.17;;;32.57;;
5357;SDS011;2702;51.014;7.170;2022-12-07T05:36:35;54.43;;;34.13;;
5357;SDS011;2702;51.014;7.170;2022-12-07T05:39:01;50.00;;;33.83;;
5357;SDS011;2702;51.014;7.170;2022-12-07T05:41:28;33.43;;;24.90;;
5357;SDS011;2702;51.014;7.170;2022-12-07T05:44:12;33.17;;;23.93;;
5357;SDS011;2702;51.014;7.170;2022-12-07T05:46:38;33.27;;;23.13;;
5357;SDS011;2702;51.014;7.170;2022-12-07T05:49:04;37.60;;;23.73;;
5357;SDS011;2702;51.014;7.170;2022-12-07T05:51:30;33.50;;;23.77;;
5357;SDS011;2702;51.014;7.170;2022-12-07T05:53:56;32.10;;;22.67;;
5357;SDS011;2702;51.014;7.170;2022-12-07T05:56:21;35.00;;;24.43;;
5357;SDS011;2702;51.014;7.170;2022-12-07T05:58:48;34.30;;;24.30;;
5357;SDS011;2702;51.014;7.170;2022-12-07T06:01:32;36.03;;;24.57;;
5357;SDS011;2702;51.014;7.170;2022-12-07T06:03:57;38.33;;;27.13;;
5357;SDS011;2702;51.014;7.170;2022-12-07T06:06:23;38.77;;;28.20;;
5357;SDS011;2702;51.014;7.170;2022-12-07T06:08:49;40.50;;;30.03;;
5357;SDS011;2702;51.014;7.170;2022-12-07T06:11:15;41.13;;;30.43;;
5357;SDS011;2702;51.014;7.170;2022-12-07T06:14:00;43.20;;;29.70;;
5357;SDS011;2702;51.014;7.170;2022-12-07T06:16:25;47.70;;;33.27;;
5357;SDS011;2702;51.014;7.170;2022-12-07T06:18:51;39.47;;;29.93;;
5357;SDS011;2702;51.014;7.170;2022-12-07T06:21:17;39.73;;;29.47;;
5357;SDS011;2702;51.014;7.170;2022-12-07T06:23:43;41.87;;;30.33;;
5357;SDS011;2702;51.014;7.170;2022-12-07T06:26:09;44.90;;;32.40;;
5357;SDS011;2702;51.014;7.170;2022-12-07T06:28:34;46.03;;;31.50;;
5357;SDS011;2702;51.014;7.170;2022-12-07T06:31:01;42.40;;;29.70;;
5357;SDS011;2702;51.014;7.170;2022-12-07T06:33:28;47.87;;;30.60;;
5357;SDS011;2702;51.014;7.170;2022-12-07T06:35:54;45.63;;;32.67;;
5357;SDS011;2702;51.014;7.170;2022-12-07T06:38:20;43.23;;;29.40;;
5357;SDS011;2702;51.014;7.170;2022-12-07T06:40:46;44.23;;;29.60;;
5357;SDS011;2702;51.014;7.170;2022-12-07T06:43:12;42.13;;;29.80;;
5357;SDS011;2702;51.014;7.170;2022-12-07T06:45:37;42.73;;;29.87;;
5357;SDS011;2702;51.014;7.170;2022-12-07T06:48:03;44.00;;;29.37;;
5357;SDS011;2702;51.014;7.170;2022-12-07T06:50:29;38.43;;;27.00;;
5357;SDS011;2702;51.014;7.170;2022-12-07T06:52:55;41.93;;;28.80;;
5357;SDS011;2702;51.014;7.170;2022-12-07T06:55:22;37.63;;;27.60;;
5357;SDS011;2702;51.014;7.170;2022-12-07T06:57:48;37.40;;;27.80;;
5357;SDS011;2702;51.014;7.170;2022-12-07T07:00:14;38.13;;;28.37;;
5357;SDS011;2702;51.014;7.170;2022-12-07T07:02:40;38.43;;;29.33;;
5357;SDS011;2702;51.014;7.170;2022-12-07T07:05:06;38.43;;;27.80;;
5357;SDS011;2702;51.014;7.170;2022-12-07T07:07:32;37.27;;;26.37;;
5357;SDS011;2702;51.014;7.170;2022-12-07T07:09:58;41.60;;;27.20;;
5357;SDS011;2702;51.014;7.170;2022-12-07T07:12:23;36.67;;;27.30;;
5357;SDS011;2702;51.014;7.170;2022-12-07T07:14:49;37.90;;;26.83;;
5357;SDS011;2702;51.014;7.170;2022-12-07T07:17:15;38.27;;;28.10;;
5357;SDS011;2702;51.014;7.170;2022-12-07T07:19:41;39.03;;;27.53;;
5357;SDS011;2702;51.014;7.170;2022-12-07T07:22:06;37.90;;;27.23;;
5357;SDS011;2702;51.014;7.170;2022-12-07T07:24:32;34.83;;;26.23;;
5357;SDS011;2702;51.014;7.170;2022-12-07T07:26:58;39.80;;;26.43;;
5357;SDS011;2702;51.014;7.170;2022-12-07T07:29:24;33.87;;;24.60;;
5357;SDS011;2702;51.014;7.170;2022-12-07T07:31:50;34.30;;;26.50;;
5357;SDS011;2702;51.014;7.170;2022-12-07T07:34:15;36.43;;;25.90;;
5357;SDS011;2702;51.014;7.170;2022-12-07T07:36:41;36.50;;;26.07;;
5357;SDS011;2702;51.014;7.170;2022-12-07T07:39:07;34.37;;;25.23;;
5357;SDS011;2702;51.014;7.170;2022-12-07T07:41:35;37.80;;;25.90;;
5357;SDS011;2702;51.014;7.170;2022-12-07T07:44:01;37.50;;;25.57;;
5357;SDS011;2702;51.014;7.170;2022-12-07T07:46:26;38.10;;;27.80;;
5357;SDS011;2702;51.014;7.170;2022-12-07T07:48:52;34.17;;;24.40;;
5357;SDS011;2702;51.014;7.170;2022-12-07T07:51:18;31.80;;;24.13;;
5357;SDS011;2702;51.014;7.170;2022-12-07T07:53:44;35.87;;;24.63;;
5357;SDS011;2702;51.014;7.170;2022-12-07T07:56:10;29.00;;;22.30;;
5357;SDS011;2702;51.014;7.170;2022-12-07T07:58:35;40.50;;;26.50;;
5357;SDS011;2702;51.014;7.170;2022-12-07T08:01:05;34.90;;;24.63;;
5357;SDS011;2702;51.014;7.170;2022-12-07T08:03:31;36.80;;;24.33;;
5357;SDS011;2702;51.014;7.170;2022-12-07T08:05:57;33.63;;;24.90;;
5357;SDS011;2702;51.014;7.170;2022-12-07T08:08:23;33.90;;;25.03;;
5357;SDS011;2702;51.014;7.170;2022-12-07T08:10:49;34.97;;;25.10;;
5357;SDS011;2702;51.014;7.170;2022-12-07T08:13:15;36.40;;;25.63;;
5357;SDS011;2702;51.014;7.170;2022-12-07T08:15:43;35.00;;;24.13;;
5357;SDS011;2702;51.014;7.170;2022-12-07T08:18:10;40.17;;;27.80;;
5357;SDS011;2702;51.014;7.170;2022-12-07T08:20:37;41.90;;;26.63;;
5357;SDS011;2702;51.014;7.170;2022-12-07T08:23:04;42.57;;;25.13;;
5357;SDS011;2702;51.014;7.170;2022-12-07T08:25:31;49.90;;;30.00;;
5357;SDS011;2702;51.014;7.170;2022-12-07T08:27:57;37.33;;;27.70;;
5357;SDS011;2702;51.014;7.170;2022-12-07T08:30:25;48.03;;;30.00;;
5357;SDS011;2702;51.014;7.170;2022-12-07T08:32:52;46.73;;;27.87;;
5357;SDS011;2702;51.014;7.170;2022-12-07T08:35:18;53.63;;;30.43;;
5357;SDS011;2702;51.014;7.170;2022-12-07T08:37:48;42.77;;;28.90;;
5357;SDS011;2702;51.014;7.170;2022-12-07T08:40:14;43.13;;;28.80;;
5357;SDS011;2702;51.014;7.170;2022-12-07T08:42:44;40.70;;;28.20;;
5357;SDS011;2702;51.014;7.170;2022-12-07T08:45:14;38.97;;;26.70;;
5357;SDS011;2702;51.014;7.170;2022-12-07T08:47:42;36.50;;;26.20;;
5357;SDS011;2702;51.014;7.170;2022-12-07T08:50:15;38.27;;;25.50;;
5357;SDS011;2702;51.014;7.170;2022-12-07T08:52:42;36.17;;;25.07;;
5357;SDS011;2702;51.014;7.170;2022-12-07T08:55:11;33.83;;;24.00;;
5357;SDS011;2702;51.014;7.170;2022-12-07T08:57:38;35.80;;;25.17;;
5357;SDS011;2702;51.014;7.170;2022-12-07T09:00:05;31.83;;;25.97;;
5357;SDS011;2702;51.014;7.170;2022-12-07T09:02:32;36.80;;;25.60;;
5357;SDS011;2702;51.014;7.170;2022-12-07T09:04:58;36.07;;;24.83;;
5357;SDS011;2702;51.014;7.170;2022-12-07T09:07:24;35.97;;;27.43;;
5357;SDS011;2702;51.014;7.170;2022-12-07T09:09:51;36.87;;;26.53;;
5357;SDS011;2702;51.014;7.170;2022-12-07T09:12:17;37.40;;;26.60;;
5357;SDS011;2702;51.014;7.170;2022-12-07T09:14:43;39.40;;;27.30;;
5357;SDS011;2702;51.014;7.170;2022-12-07T09:17:09;35.60;;;26.10;;
5357;SDS011;2702;51.014;7.170;2022-12-07T09:19:36;35.60;;;25.27;;
5357;SDS011;2702;51.014;7.170;2022-12-07T09:22:03;37.83;;;26.20;;
5357;SDS011;2702;51.014;7.170;2022-12-07T09:24:30;37.33;;;26.60;;
5357;SDS011;2702;51.014;7.170;2022-12-07T09:26:57;30.77;;;23.57;;
5357;SDS011;2702;51.014;7.170;2022-12-07T09:29:23;36.60;;;25.17;;
5357;SDS011;2702;51.014;7.170;2022-12-07T09:31:50;34.37;;;23.00;;
5357;SDS011;2702;51.014;7.170;2022-12-07T09:34:16;36.97;;;23.00;;
5357;SDS011;2702;51.014;7.170;2022-12-07T09:36:42;29.20;;;22.37;;
5357;SDS011;2702;51.014;7.170;2022-12-07T09:39:09;30.67;;;22.43;;
5357;SDS011;2702;51.014;7.170;2022-12-07T09:41:38;25.23;;;20.77;;
5357;SDS011;2702;51.014;7.170;2022-12-07T09:44:14;29.83;;;22.53;;
5357;SDS011;2702;51.014;7.170;2022-12-07T09:46:48;27.50;;;22.00;;
5357;SDS011;2702;51.014;7.170;2022-12-07T09:49:22;28.30;;;23.80;;
5357;SDS011;2702;51.014;7.170;2022-12-07T09:52:02;30.50;;;23.13;;
5357;SDS011;2702;51.014;7.170;2022-12-07T09:54:43;31.30;;;21.80;;
5357;SDS011;2702;51.014;7.170;2022-12-07T09:57:13;28.33;;;19.93;;
5357;SDS011;2702;51.014;7.170;2022-12-07T09:59:40;30.00;;;22.93;;
5357;SDS011;2702;51.014;7.170;2022-12-07T10:05:05;30.10;;;21.50;;
5357;SDS011;2702;51.014;7.170;2022-12-07T10:07:32;31.33;;;22.23;;
5357;SDS011;2702;51.014;7.170;2022-12-07T10:09:58;31.07;;;21.00;;
5357;SDS011;2702;51.014;7.170;2022-12-07T10:12:23;31.83;;;23.40;;
5357;SDS011;2702;51.014;7.170;2022-12-07T10:14:53;27.97;;;20.80;;
5357;SDS011;2702;51.014;7.170;2022-12-07T10:22:58;28.93;;;21.53;;
5357;SDS011;2702;51.014;7.170;2022-12-07T10:25:28;29.80;;;22.20;;
5357;SDS011;2702;51.014;7.170;2022-12-07T10:27:58;30.70;;;22.77;;
5357;SDS011;2702;51.014;7.170;2022-12-07T10:30:25;30.20;;;22.73;;
5357;SDS011;2702;51.014;7.170;2022-12-07T10:32:51;32.23;;;22.40;;
5357;SDS011;2702;51.014;7.170;2022-12-07T10:35:24;31.27;;;21.90;;
5357;SDS011;2702;51.014;7.170;2022-12-07T10:37:54;27.97;;;22.07;;
5357;SDS011;2702;51.014;7.170;2022-12-07T10:51:05;31.17;;;20.23;;
5357;SDS011;2702;51.014;7.170;2022-12-07T11:04:06;21.60;;;18.47;;
5357;SDS011;2702;51.014;7.170;2022-12-07T11:06:43;24.37;;;19.17;;
5357;SDS011;2702;51.014;7.170;2022-12-07T11:12:33;22.23;;;18.03;;
5357;SDS011;2702;51.014;7.170;2022-12-07T11:15:24;25.27;;;17.23;;
5357;SDS011;2702;51.014;7.170;2022-12-07T11:18:09;24.20;;;17.93;;
5357;SDS011;2702;51.014;7.170;2022-12-07T11:37:39;14.53;;;13.03;;
5357;SDS011;2702;51.014;7.170;2022-12-07T11:46:00;15.93;;;12.23;;
5357;SDS011;2702;51.014;7.170;2022-12-07T11:51:17;17.87;;;12.43;;
5357;SDS011;2702;51.014;7.170;2022-12-07T11:56:20;17.57;;;11.13;;
5357;SDS011;2702;51.014;7.170;2022-12-07T11:58:51;18.27;;;12.17;;
5357;SDS011;2702;51.014;7.170;2022-12-07T12:06:40;14.80;;;11.90;;
5357;SDS011;2702;51.014;7.170;2022-12-07T12:11:56;21.17;;;12.30;;
5357;SDS011;2702;51.014;7.170;2022-12-07T12:20:02;16.40;;;10.97;;
5357;SDS011;2702;51.014;7.170;2022-12-07T12:22:37;14.27;;;10.93;;
5357;SDS011;2702;51.014;7.170;2022-12-07T12:25:17;15.27;;;10.73;;
5357;SDS011;2702;51.014;7.170;2022-12-07T12:27:48;20.40;;;12.17;;
5357;SDS011;2702;51.014;7.170;2022-12-07T12:30:50;15.10;;;10.93;;
5357;SDS011;2702;51.014;7.170;2022-12-07T12:33:26;14.60;;;10.57;;
5357;SDS011;2702;51.014;7.170;2022-12-07T12:44:03;13.37;;;11.80;;
5357;SDS011;2702;51.014;7.170;2022-12-07T12:54:15;15.27;;;12.00;;
5357;SDS011;2702;51.014;7.170;2022-12-07T13:02:30;17.27;;;11.57;;
5357;SDS011;2702;51.014;7.170;2022-12-07T13:15:48;16.73;;;10.57;;
5357;SDS011;2702;51.014;7.170;2022-12-07T13:21:38;11.80;;;9.10;;
5357;SDS011;2702;51.014;7.170;2022-12-07T13:23:55;12.90;;;9.07;;
5357;SDS011;2702;51.014;7.170;2022-12-07T13:31:43;14.03;;;8.63;;
5357;SDS011;2702;51.014;7.170;2022-12-07T13:37:15;11.13;;;8.00;;
5357;SDS011;2702;51.014;7.170;2022-12-07T13:39:52;13.93;;;8.43;;
5357;SDS011;2702;51.014;7.170;2022-12-07T13:42:32;10.50;;;7.47;;
5357;SDS011;2702;51.014;7.170;2022-12-07T13:45:01;10.60;;;8.37;;
5357;SDS011;2702;51.014;7.170;2022-12-07T13:47:51;13.03;;;8.83;;
5357;SDS011;2702;51.014;7.170;2022-12-07T13:50:23;13.47;;;9.40;;
5357;SDS011;2702;51.014;7.170;2022-12-07T13:52:59;12.13;;;9.20;;
5357;SDS011;2702;51.014;7.170;2022-12-07T13:55:26;11.00;;;7.60;;
5357;SDS011;2702;51.014;7.170;2022-12-07T13:57:54;9.87;;;7.93;;
5357;SDS011;2702;51.014;7.170;2022-12-07T14:00:21;16.47;;;7.97;;
5357;SDS011;2702;51.014;7.170;2022-12-07T14:02:57;13.00;;;8.60;;
5357;SDS011;2702;51.014;7.170;2022-12-07T14:05:45;11.73;;;8.33;;
5357;SDS011;2702;51.014;7.170;2022-12-07T14:10:40;12.10;;;8.70;;
5357;SDS011;2702;51.014;7.170;2022-12-07T14:16:21;12.67;;;8.13;;
5357;SDS011;2702;51.014;7.170;2022-12-07T14:18:50;11.30;;;7.80;;
5357;SDS011;2702;51.014;7.170;2022-12-07T14:21:17;15.10;;;8.47;;
5357;SDS011;2702;51.014;7.170;2022-12-07T14:24:02;12.67;;;7.53;;
5357;SDS011;2702;51.014;7.170;2022-12-07T14:26:41;11.97;;;7.27;;
5357;SDS011;2702;51.014;7.170;2022-12-07T14:29:49;12.90;;;8.00;;
5357;SDS011;2702;51.014;7.170;2022-12-07T14:31:59;10.00;;;7.33;;
5357;SDS011;2702;51.014;7.170;2022-12-07T14:35:09;10.97;;;7.73;;
5357;SDS011;2702;51.014;7.170;2022-12-07T14:37:37;12.33;;;8.00;;
5357;SDS011;2702;51.014;7.170;2022-12-07T14:40:04;14.90;;;8.93;;
5357;SDS011;2702;51.014;7.170;2022-12-07T14:42:31;12.40;;;8.30;;
5357;SDS011;2702;51.014;7.170;2022-12-07T14:44:59;12.57;;;8.33;;
5357;SDS011;2702;51.014;7.170;2022-12-07T14:47:26;11.63;;;8.13;;
5357;SDS011;2702;51.014;7.170;2022-12-07T14:49:52;15.73;;;9.57;;
5357;SDS011;2702;51.014;7.170;2022-12-07T14:52:36;10.97;;;8.53;;
5357;SDS011;2702;51.014;7.170;2022-12-07T14:55:04;12.17;;;9.70;;
5357;SDS011;2702;51.014;7.170;2022-12-07T14:57:34;11.60;;;8.93;;
5357;SDS011;2702;51.014;7.170;2022-12-07T15:00:00;14.23;;;9.50;;
5357;SDS011;2702;51.014;7.170;2022-12-07T15:02:26;13.53;;;9.27;;
5357;SDS011;2702;51.014;7.170;2022-12-07T15:04:52;12.23;;;9.33;;
5357;SDS011;2702;51.014;7.170;2022-12-07T15:07:19;15.60;;;11.30;;
5357;SDS011;2702;51.014;7.170;2022-12-07T15:09:46;16.03;;;10.63;;
5357;SDS011;2702;51.014;7.170;2022-12-07T15:12:12;13.20;;;9.50;;
5357;SDS011;2702;51.014;7.170;2022-12-07T15:14:38;11.93;;;9.77;;
5357;SDS011;2702;51.014;7.170;2022-12-07T15:17:04;12.40;;;9.80;;
5357;SDS011;2702;51.014;7.170;2022-12-07T15:19:30;16.00;;;10.17;;
5357;SDS011;2702;51.014;7.170;2022-12-07T15:21:56;10.60;;;8.63;;
5357;SDS011;2702;51.014;7.170;2022-12-07T15:24:23;13.73;;;9.20;;
5357;SDS011;2702;51.014;7.170;2022-12-07T15:26:49;18.30;;;11.17;;
5357;SDS011;2702;51.014;7.170;2022-12-07T15:29:15;13.80;;;9.63;;
5357;SDS011;2702;51.014;7.170;2022-12-07T15:31:42;18.30;;;10.70;;
5357;SDS011;2702;51.014;7.170;2022-12-07T15:34:08;13.80;;;10.30;;
5357;SDS011;2702;51.014;7.170;2022-12-07T15:36:34;13.63;;;10.33;;
5357;SDS011;2702;51.014;7.170;2022-12-07T15:39:00;14.27;;;10.00;;
5357;SDS011;2702;51.014;7.170;2022-12-07T15:41:26;13.33;;;10.10;;
5357;SDS011;2702;51.014;7.170;2022-12-07T15:43:52;15.43;;;11.40;;
5357;SDS011;2702;51.014;7.170;2022-12-07T15:46:37;16.43;;;10.10;;
5357;SDS011;2702;51.014;7.170;2022-12-07T15:49:10;14.73;;;11.47;;
5357;SDS011;2702;51.014;7.170;2022-12-07T15:51:45;17.90;;;11.90;;
5357;SDS011;2702;51.014;7.170;2022-12-07T15:54:19;15.17;;;11.17;;
5357;SDS011;2702;51.014;7.170;2022-12-07T15:56:47;15.93;;;10.83;;
5357;SDS011;2702;51.014;7.170;2022-12-07T15:59:13;13.10;;;11.63;;
5357;SDS011;2702;51.014;7.170;2022-12-07T16:01:39;14.83;;;12.20;;
5357;SDS011;2702;51.014;7.170;2022-12-07T16:04:05;16.40;;;12.13;;
5357;SDS011;2702;51.014;7.170;2022-12-07T16:06:31;15.50;;;11.27;;
5357;SDS011;2702;51.014;7.170;2022-12-07T16:08:56;16.20;;;10.23;;
5357;SDS011;2702;51.014;7.170;2022-12-07T16:11:23;13.03;;;10.83;;
5357;SDS011;2702;51.014;7.170;2022-12-07T16:13:49;10.60;;;9.60;;
5357;SDS011;2702;51.014;7.170;2022-12-07T16:16:16;9.80;;;8.80;;
5357;SDS011;2702;51.014;7.170;2022-12-07T16:18:45;14.57;;;8.80;;
5357;SDS011;2702;51.014;7.170;2022-12-07T16:21:12;11.17;;;8.47;;
5357;SDS011;2702;51.014;7.170;2022-12-07T16:23:39;10.13;;;9.03;;
5357;SDS011;2702;51.014;7.170;2022-12-07T16:26:10;10.27;;;8.73;;
5357;SDS011;2702;51.014;7.170;2022-12-07T16:28:38;12.40;;;8.93;;
5357;SDS011;2702;51.014;7.170;2022-12-07T16:31:05;9.73;;;8.70;;
5357;SDS011;2702;51.014;7.170;2022-12-07T16:33:35;12.03;;;8.63;;
5357;SDS011;2702;51.014;7.170;2022-12-07T16:36:03;11.00;;;9.40;;
5357;SDS011;2702;51.014;7.170;2022-12-07T16:38:30;13.40;;;8.97;;
5357;SDS011;2702;51.014;7.170;2022-12-07T16:40:56;10.40;;;9.30;;
5357;SDS011;2702;51.014;7.170;2022-12-07T16:43:21;11.33;;;8.87;;
5357;SDS011;2702;51.014;7.170;2022-12-07T16:45:47;12.40;;;9.40;;
5357;SDS011;2702;51.014;7.170;2022-12-07T16:48:14;9.77;;;8.33;;
5357;SDS011;2702;51.014;7.170;2022-12-07T16:50:42;12.60;;;8.20;;
5357;SDS011;2702;51.014;7.170;2022-12-07T16:53:10;13.30;;;9.50;;
5357;SDS011;2702;51.014;7.170;2022-12-07T16:55:37;12.20;;;8.73;;
5357;SDS011;2702;51.014;7.170;2022-12-07T16:58:04;11.60;;;9.80;;
5357;SDS011;2702;51.014;7.170;2022-12-07T17:00:32;11.10;;;10.00;;
5357;SDS011;2702;51.014;7.170;2022-12-07T17:02:58;10.57;;;9.57;;
5357;SDS011;2702;51.014;7.170;2022-12-07T17:05:24;13.03;;;9.70;;
5357;SDS011;2702;51.014;7.170;2022-12-07T17:07:52;12.70;;;9.77;;
5357;SDS011;2702;51.014;7.170;2022-12-07T17:10:17;20.13;;;11.27;;
5357;SDS011;2702;51.014;7.170;2022-12-07T17:12:43;14.90;;;11.57;;
5357;SDS011;2702;51.014;7.170;2022-12-07T17:15:09;14.40;;;11.00;;
5357;SDS011;2702;51.014;7.170;2022-12-07T17:17:42;15.67;;;11.23;;
5357;SDS011;2702;51.014;7.170;2022-12-07T17:20:19;12.93;;;11.20;;
5357;SDS011;2702;51.014;7.170;2022-12-07T17:22:47;15.43;;;11.80;;
5357;SDS011;2702;51.014;7.170;2022-12-07T17:25:13;22.07;;;13.33;;
5357;SDS011;2702;51.014;7.170;2022-12-07T17:27:39;15.73;;;12.60;;
5357;SDS011;2702;51.014;7.170;2022-12-07T17:30:06;17.03;;;12.80;;
5357;SDS011;2702;51.014;7.170;2022-12-07T17:32:32;16.13;;;13.40;;
5357;SDS011;2702;51.014;7.170;2022-12-07T17:34:58;16.23;;;13.13;;
5357;SDS011;2702;51.014;7.170;2022-12-07T17:37:25;18.93;;;13.73;;
5357;SDS011;2702;51.014;7.170;2022-12-07T17:39:51;16.33;;;13.40;;
5357;SDS011;2702;51.014;7.170;2022-12-07T17:42:21;17.53;;;14.97;;
5357;SDS011;2702;51.014;7.170;2022-12-07T17:45:05;18.40;;;14.10;;
5357;SDS011;2702;51.014;7.170;2022-12-07T17:47:34;18.00;;;14.57;;